Terminal Aerodrome Forecast
Issued by NWS Glasgow, MT

Home | Current Version | Previous Version | Text Only | Print | Product List | Glossary On
Versions: 1 2 3 4 5 6 7 8 9 10 11 12 13
000
FTUS45 KGGW 312320
TAFGGW
TAF
KGGW 312320Z 0100/0124 15015G20KT P6SM FEW200
     FM010400 12011KT P6SM FEW100 WS020/16035KT
     FM010600 13013KT P6SM SCT100 WS020/17045KT
     FM010900 12012KT P6SM SCT100 WS020/18035KT
     FM011200 13011KT P6SM SCT150=

USA.gov is the U.S. government's official web portal to all federal, state and local government web resources and services.